Time;durP1;ratioP1;P1;durP2;ratioP2;P2;SDS_P1;SDS_P2;PMS_P1;PMS_P2;Temp;Humidity;BMP_temperature;BMP_pressure;BME280_temperature;BME280_humidity;BME280_pressure;Samples;Min_cycle;Max_cycle;Signal;HPM_P1;HPM_P2
2023/07/03 00:00:57;;;;;;;13.07;5.00;;;14.80;99.90;;;;;;5033111;28;20402;-61
2023/07/03 00:03:23;;;;;;;17.75;5.00;;;14.80;99.90;;;;;;5014314;28;20091;-62
2023/07/03 00:05:49;;;;;;;12.07;4.75;;;14.80;99.90;;;;;;5014949;28;20049;-62
2023/07/03 00:08:16;;;;;;;13.68;4.85;;;14.80;99.90;;;;;;5032815;28;20037;-61
2023/07/03 00:10:42;;;;;;;10.77;4.03;;;14.80;99.90;;;;;;5014073;28;20116;-61
2023/07/03 00:13:09;;;;;;;12.35;4.63;;;14.80;99.90;;;;;;5032710;28;20120;-61
2023/07/03 00:15:35;;;;;;;12.50;4.75;;;14.70;99.90;;;;;;5014417;28;20092;-61
2023/07/03 00:18:00;;;;;;;14.43;3.95;;;14.80;99.90;;;;;;5032020;28;20037;-61
2023/07/03 00:20:27;;;;;;;10.98;4.45;;;14.70;99.90;;;;;;5014742;28;20077;-61
2023/07/03 00:22:54;;;;;;;15.20;5.15;;;14.70;99.90;;;;;;5032579;28;20049;-61
2023/07/03 00:25:19;;;;;;;13.88;4.35;;;14.70;99.90;;;;;;5014281;28;20469;-61
2023/07/03 00:27:46;;;;;;;15.07;4.25;;;14.70;99.90;;;;;;5032255;28;20121;-61
2023/07/03 00:30:13;;;;;;;11.25;3.50;;;14.80;99.90;;;;;;4998581;28;20073;-61
2023/07/03 00:32:39;;;;;;;11.38;3.85;;;14.70;99.90;;;;;;5014192;28;20045;-61
2023/07/03 00:35:06;;;;;;;11.70;4.03;;;14.80;99.90;;;;;;5032754;28;20033;-61
2023/07/03 00:37:32;;;;;;;11.80;4.10;;;14.70;99.90;;;;;;5012303;28;20038;-61
2023/07/03 00:39:58;;;;;;;9.30;4.03;;;14.70;99.90;;;;;;4994093;28;20133;-61
2023/07/03 00:42:26;;;;;;;13.45;4.53;;;14.70;99.90;;;;;;4994712;28;20133;-61
2023/07/03 00:44:52;;;;;;;13.73;4.43;;;14.70;99.90;;;;;;4994010;28;20038;-61
2023/07/03 00:47:18;;;;;;;13.05;4.72;;;14.70;99.90;;;;;;5012475;28;20042;-62
2023/07/03 00:49:44;;;;;;;9.68;4.38;;;14.70;99.90;;;;;;4994747;28;20042;-61
2023/07/03 00:52:12;;;;;;;17.98;4.78;;;14.70;99.90;;;;;;5011869;28;20042;-61
2023/07/03 00:54:38;;;;;;;8.85;3.92;;;14.80;99.90;;;;;;4995001;28;20128;-61
2023/07/03 00:57:05;;;;;;;12.02;3.90;;;14.80;99.90;;;;;;5012055;28;20045;-61
2023/07/03 00:59:33;;;;;;;10.38;3.03;;;14.80;99.90;;;;;;5011694;28;20060;-61
2023/07/03 01:02:03;;;;;;;14.80;4.13;;;14.80;99.90;;;;;;4994495;28;20065;-61
2023/07/03 01:04:40;;;;;;;11.65;3.55;;;14.80;99.90;;;;;;4994829;28;20125;-61
2023/07/03 01:07:30;;;;;;;10.90;3.97;;;14.80;99.90;;;;;;5011748;28;20045;-61
2023/07/03 01:10:00;;;;;;;10.65;3.45;;;14.90;99.90;;;;;;5002566;28;20450;-61
2023/07/03 01:12:28;;;;;;;9.38;3.75;;;14.90;99.90;;;;;;4975082;28;20074;-61
2023/07/03 01:14:59;;;;;;;11.98;4.22;;;14.90;99.90;;;;;;4991420;28;20515;-61
2023/07/03 01:17:27;;;;;;;11.18;4.35;;;14.90;99.90;;;;;;4975111;28;20085;-61
2023/07/03 01:19:54;;;;;;;6.80;2.70;;;15.00;99.90;;;;;;4996203;28;20125;-61
2023/07/03 01:22:23;;;;;;;9.30;3.05;;;15.10;99.90;;;;;;4979233;28;20498;-61
2023/07/03 01:24:55;;;;;;;7.93;2.50;;;15.10;99.90;;;;;;4979027;28;20499;-62
2023/07/03 01:27:24;;;;;;;11.88;3.22;;;15.10;99.90;;;;;;4978448;28;20126;-61
2023/07/03 01:29:51;;;;;;;11.35;3.40;;;15.20;99.90;;;;;;4979352;28;20050;-61
2023/07/03 01:32:22;;;;;;;9.07;2.80;;;15.20;99.90;;;;;;4996186;28;20045;-61
2023/07/03 01:34:50;;;;;;;9.50;2.47;;;15.20;99.90;;;;;;4978547;28;20105;-61
2023/07/03 01:37:17;;;;;;;11.05;3.25;;;15.20;99.90;;;;;;5003474;28;20076;-61
2023/07/03 01:39:45;;;;;;;8.68;3.10;;;15.10;99.90;;;;;;5015638;28;20506;-61
2023/07/03 01:42:12;;;;;;;10.10;3.13;;;15.10;99.90;;;;;;4997857;28;20050;-61
2023/07/03 01:44:38;;;;;;;7.00;2.45;;;15.10;99.90;;;;;;4998596;28;20145;-61
2023/07/03 01:47:11;;;;;;;7.22;2.33;;;15.00;99.90;;;;;;4997885;28;20129;-61
2023/07/03 01:49:37;;;;;;;10.75;3.20;;;15.00;99.90;;;;;;4997500;28;20100;-61
2023/07/03 01:52:12;;;;;;;9.98;2.90;;;15.00;99.90;;;;;;5015349;28;20037;-61
2023/07/03 01:54:58;;;;;;;11.45;3.38;;;15.00;99.90;;;;;;4982281;28;20372;-61
2023/07/03 01:57:45;;;;;;;9.95;3.40;;;14.90;99.90;;;;;;4997101;28;20486;-61
2023/07/03 02:00:16;;;;;;;12.30;3.55;;;14.90;99.90;;;;;;5015870;28;20041;-61
2023/07/03 02:02:48;;;;;;;11.18;2.80;;;14.80;99.90;;;;;;4996969;28;20120;-62
2023/07/03 02:05:21;;;;;;;10.32;2.97;;;14.80;99.90;;;;;;4997544;28;20045;-61
2023/07/03 02:07:49;;;;;;;11.40;3.55;;;14.80;99.90;;;;;;4997503;28;20117;-62
2023/07/03 02:10:15;;;;;;;13.30;3.33;;;14.70;99.90;;;;;;5014403;28;20045;-61
2023/07/03 02:12:47;;;;;;;12.23;3.00;;;14.70;99.90;;;;;;4997573;28;20034;-61
2023/07/03 02:15:14;;;;;;;14.07;3.58;;;14.60;99.90;;;;;;4997380;28;20050;-62
2023/07/03 02:17:41;;;;;;;7.85;2.90;;;14.60;99.90;;;;;;4996857;28;20048;-62
2023/07/03 02:20:13;;;;;;;14.23;3.83;;;14.50;99.90;;;;;;4997734;28;20137;-62
2023/07/03 02:22:43;;;;;;;14.13;2.67;;;14.50;99.90;;;;;;4997606;28;20127;-61
2023/07/03 02:25:10;;;;;;;13.90;2.85;;;14.50;99.90;;;;;;5014591;28;20045;-61
2023/07/03 02:27:36;;;;;;;7.35;3.00;;;14.40;99.90;;;;;;4997333;28;20042;-62
2023/07/03 02:30:04;;;;;;;12.40;3.40;;;14.30;99.90;;;;;;4996277;28;20120;-62
2023/07/03 02:32:38;;;;;;;11.73;3.45;;;14.30;99.90;;;;;;5013783;28;20096;-62
2023/07/03 02:35:05;;;;;;;8.38;3.35;;;14.20;99.90;;;;;;4997349;28;20438;-62
2023/07/03 02:37:32;;;;;;;10.55;3.33;;;14.20;99.90;;;;;;5014065;28;20124;-62
2023/07/03 02:39:58;;;;;;;9.85;3.28;;;14.10;99.90;;;;;;5014680;28;20059;-62
2023/07/03 02:42:23;;;;;;;6.80;2.63;;;14.10;99.90;;;;;;5014585;28;20044;-62
2023/07/03 02:44:51;;;;;;;10.50;2.90;;;14.00;99.90;;;;;;4996189;28;20030;-62
2023/07/03 02:47:17;;;;;;;12.50;3.60;;;14.00;99.90;;;;;;4996805;28;20050;-62
2023/07/03 02:49:42;;;;;;;12.35;2.80;;;13.90;99.90;;;;;;4996847;28;20045;-62
2023/07/03 02:52:08;;;;;;;9.82;3.20;;;13.90;99.90;;;;;;5014088;28;20052;-63
2023/07/03 02:54:34;;;;;;;13.18;2.97;;;13.90;99.90;;;;;;4996762;28;20049;-63
2023/07/03 02:57:00;;;;;;;7.80;2.85;;;13.90;99.90;;;;;;4996746;28;20045;-63
2023/07/03 02:59:25;;;;;;;10.32;3.08;;;13.80;99.90;;;;;;5013582;28;20120;-62
2023/07/03 03:01:51;;;;;;;13.45;3.58;;;13.70;99.90;;;;;;5013815;28;20049;-62
2023/07/03 03:04:17;;;;;;;6.57;2.70;;;13.70;99.90;;;;;;5014120;28;20048;-63
2023/07/03 03:06:43;;;;;;;9.63;3.00;;;13.70;99.90;;;;;;4995709;28;20048;-62
2023/07/03 03:09:09;;;;;;;9.95;3.03;;;13.60;99.90;;;;;;5014375;28;20491;-62
2023/07/03 03:11:36;;;;;;;11.77;3.55;;;13.60;99.90;;;;;;4996360;28;20049;-62
2023/07/03 03:14:02;;;;;;;11.73;3.08;;;13.60;99.90;;;;;;4995719;28;20491;-63
2023/07/03 03:16:28;;;;;;;11.75;3.03;;;13.50;99.90;;;;;;5013766;28;20097;-63
2023/07/03 03:18:54;;;;;;;14.13;3.00;;;13.50;99.90;;;;;;5014106;28;20131;-62
2023/07/03 03:21:20;;;;;;;10.10;3.35;;;13.50;99.90;;;;;;5013182;28;20052;-62
2023/07/03 03:23:46;;;;;;;9.88;2.80;;;13.50;99.90;;;;;;5013989;28;20037;-63
2023/07/03 03:26:13;;;;;;;11.10;3.15;;;13.40;99.90;;;;;;4996418;28;20038;-62
2023/07/03 03:28:39;;;;;;;16.92;3.13;;;13.50;99.90;;;;;;4995448;28;20049;-62
2023/07/03 03:31:05;;;;;;;9.05;3.47;;;13.40;99.90;;;;;;5013836;28;20071;-62
2023/07/03 03:33:30;;;;;;;12.90;3.55;;;13.40;99.90;;;;;;5013822;28;20663;-62
2023/07/03 03:35:56;;;;;;;10.07;3.20;;;13.40;99.90;;;;;;4995190;28;20054;-62
2023/07/03 03:38:22;;;;;;;9.40;3.00;;;13.40;99.90;;;;;;5013698;28;20384;-63
2023/07/03 03:40:56;;;;;;;9.23;3.03;;;13.40;99.90;;;;;;4978517;28;20045;-63
2023/07/03 03:43:22;;;;;;;11.77;3.47;;;13.30;99.90;;;;;;4996180;28;20076;-63
2023/07/03 03:46:00;;;;;;;8.00;2.50;;;13.40;99.90;;;;;;4996092;28;20065;-62
2023/07/03 03:48:27;;;;;;;15.73;3.38;;;13.30;99.90;;;;;;5012765;28;20038;-62
2023/07/03 03:50:53;;;;;;;8.43;3.08;;;13.30;99.90;;;;;;5013321;28;20121;-62
2023/07/03 03:53:19;;;;;;;9.02;3.03;;;13.30;99.90;;;;;;5013323;28;20124;-63
2023/07/03 03:55:49;;;;;;;9.68;3.42;;;13.20;99.90;;;;;;4994978;28;20407;-63
2023/07/03 03:58:15;;;;;;;11.13;3.25;;;13.20;99.90;;;;;;5013092;28;20052;-63
2023/07/03 04:00:41;;;;;;;15.32;3.40;;;13.20;99.90;;;;;;5013419;28;20403;-63
2023/07/03 04:03:07;;;;;;;11.48;2.72;;;13.30;99.90;;;;;;4994913;28;20041;-62
2023/07/03 04:05:33;;;;;;;9.95;3.03;;;13.20;99.90;;;;;;4995630;28;20045;-62
2023/07/03 04:07:59;;;;;;;10.15;3.30;;;13.30;99.90;;;;;;4995634;28;20098;-62
2023/07/03 04:10:25;;;;;;;7.45;2.80;;;13.30;99.90;;;;;;4994627;28;20392;-63
2023/07/03 04:12:51;;;;;;;8.25;3.15;;;13.40;99.90;;;;;;5012830;28;20071;-63
2023/07/03 04:15:17;;;;;;;9.57;2.65;;;13.50;99.90;;;;;;4995028;28;20057;-62
2023/07/03 04:17:42;;;;;;;10.93;2.97;;;13.50;99.90;;;;;;4978204;28;20046;-62
2023/07/03 04:20:13;;;;;;;9.82;2.80;;;13.50;99.90;;;;;;4995532;28;20045;-62
2023/07/03 04:22:42;;;;;;;10.73;2.85;;;13.60;99.90;;;;;;5013031;28;20034;-62
2023/07/03 04:25:08;;;;;;;9.57;2.85;;;13.70;99.90;;;;;;4994548;28;20128;-62
2023/07/03 04:27:34;;;;;;;9.38;2.97;;;13.70;99.90;;;;;;4995206;28;20042;-62
2023/07/03 04:30:01;;;;;;;8.68;2.90;;;13.80;99.90;;;;;;4978020;28;20275;-62
2023/07/03 04:32:27;;;;;;;11.57;2.53;;;13.90;99.90;;;;;;4995071;28;20050;-62
2023/07/03 04:34:53;;;;;;;8.07;2.30;;;14.00;99.90;;;;;;4994807;28;20540;-62
2023/07/03 04:37:19;;;;;;;7.18;2.92;;;14.10;99.90;;;;;;5011719;28;20120;-62
2023/07/03 04:39:45;;;;;;;11.32;3.50;;;14.20;99.90;;;;;;4994783;28;20058;-63
2023/07/03 04:42:13;;;;;;;11.88;3.00;;;14.30;99.90;;;;;;4995147;28;20131;-62
2023/07/03 04:44:43;;;;;;;15.15;3.33;;;14.40;99.90;;;;;;4994416;28;20509;-62
2023/07/03 04:47:09;;;;;;;11.95;3.17;;;14.50;99.90;;;;;;5012833;28;20132;-62
2023/07/03 04:49:34;;;;;;;10.50;2.50;;;14.50;99.90;;;;;;4994782;28;20233;-62
2023/07/03 04:52:01;;;;;;;9.93;3.08;;;14.60;99.90;;;;;;5011296;28;20049;-63
2023/07/03 04:54:27;;;;;;;10.60;2.58;;;14.60;99.90;;;;;;5011980;28;20073;-63
2023/07/03 04:56:54;;;;;;;10.82;2.95;;;14.70;99.90;;;;;;4994829;28;20119;-62
2023/07/03 04:59:20;;;;;;;6.53;2.03;;;14.80;99.90;;;;;;4993819;28;20491;-63
2023/07/03 05:01:46;;;;;;;9.63;2.83;;;15.00;99.90;;;;;;4994738;28;20041;-63
2023/07/03 05:04:12;;;;;;;14.00;3.17;;;15.10;99.90;;;;;;5012513;28;20042;-63
2023/07/03 05:06:38;;;;;;;8.32;2.75;;;15.00;99.90;;;;;;5011560;28;20487;-62
2023/07/03 05:09:05;;;;;;;10.15;2.40;;;15.10;99.90;;;;;;4994762;28;20081;-62
2023/07/03 05:11:34;;;;;;;9.75;2.33;;;15.10;99.90;;;;;;4994553;28;20045;-62
2023/07/03 05:14:00;;;;;;;8.23;2.13;;;15.20;99.90;;;;;;4993847;28;20061;-63
2023/07/03 05:16:26;;;;;;;7.40;2.40;;;15.20;99.90;;;;;;5011678;28;20058;-62
2023/07/03 05:18:52;;;;;;;12.13;3.17;;;15.30;99.90;;;;;;5012132;28;20050;-63
2023/07/03 05:21:17;;;;;;;9.65;1.98;;;15.30;99.90;;;;;;4993775;28;20056;-62
2023/07/03 05:23:43;;;;;;;9.25;2.60;;;15.30;99.90;;;;;;4994599;28;20100;-63
2023/07/03 05:26:09;;;;;;;10.30;2.40;;;15.50;99.90;;;;;;4993842;28;20491;-62
2023/07/03 05:28:36;;;;;;;8.40;2.45;;;15.60;99.90;;;;;;5012209;28;20124;-62
2023/07/03 05:31:02;;;;;;;12.10;2.83;;;15.70;99.90;;;;;;5011943;28;20042;-62
2023/07/03 05:33:29;;;;;;;8.25;2.55;;;15.80;99.90;;;;;;4993602;28;20049;-62
2023/07/03 05:36:00;;;;;;;10.38;2.58;;;15.90;99.90;;;;;;5011906;28;20045;-62
2023/07/03 05:38:27;;;;;;;6.65;1.95;;;16.00;99.90;;;;;;4978019;28;20559;-62
2023/07/03 05:40:53;;;;;;;9.65;2.40;;;16.10;99.90;;;;;;4993257;28;20041;-62
2023/07/03 05:43:19;;;;;;;8.88;2.17;;;16.10;99.90;;;;;;5011774;28;20052;-63
2023/07/03 05:45:47;;;;;;;5.90;1.58;;;16.20;99.90;;;;;;5011717;28;20046;-62
2023/07/03 05:48:13;;;;;;;11.32;2.08;;;16.30;99.90;;;;;;4977336;28;20119;-62
2023/07/03 05:50:38;;;;;;;10.57;2.72;;;16.40;99.90;;;;;;4993099;28;20088;-62
2023/07/03 05:53:04;;;;;;;5.97;1.88;;;16.50;99.90;;;;;;4994083;28;20073;-62
2023/07/03 05:55:30;;;;;;;6.43;1.92;;;16.60;99.90;;;;;;5011205;28;20091;-62
2023/07/03 05:57:55;;;;;;;7.78;2.30;;;16.70;99.90;;;;;;5005436;28;20037;-62
2023/07/03 06:00:22;;;;;;;6.25;1.65;;;16.70;99.90;;;;;;4978929;28;20501;-62
2023/07/03 06:02:51;;;;;;;9.52;2.30;;;16.70;99.90;;;;;;4990425;28;20129;-62
2023/07/03 06:05:18;;;;;;;5.57;1.70;;;16.60;99.90;;;;;;4960619;28;20082;-62
2023/07/03 06:07:43;;;;;;;7.18;1.92;;;16.50;99.90;;;;;;5009354;28;20088;-63
2023/07/03 06:10:10;;;;;;;9.50;2.38;;;16.40;99.90;;;;;;5005249;28;20066;-62
2023/07/03 06:12:36;;;;;;;7.97;1.80;;;16.20;99.90;;;;;;4983766;28;20049;-63
2023/07/03 06:15:02;;;;;;;7.32;1.90;;;16.10;99.90;;;;;;4996864;28;20054;-62
2023/07/03 06:17:29;;;;;;;5.22;1.70;;;16.10;99.90;;;;;;5013531;28;20076;-62
2023/07/03 06:19:55;;;;;;;8.38;2.28;;;16.00;99.90;;;;;;4996529;28;20049;-62
2023/07/03 06:22:22;;;;;;;8.13;2.10;;;16.00;99.90;;;;;;4995983;28;20108;-62
2023/07/03 06:24:48;;;;;;;6.43;1.90;;;15.90;99.90;;;;;;4996815;28;20084;-62
2023/07/03 06:27:14;;;;;;;8.55;1.65;;;15.90;99.90;;;;;;4996219;28;20077;-63
2023/07/03 06:29:41;;;;;;;14.35;2.50;;;15.90;99.90;;;;;;4995761;28;20049;-63
2023/07/03 06:32:08;;;;;;;9.25;2.20;;;15.70;99.90;;;;;;4996880;28;20110;-63
2023/07/03 06:34:34;;;;;;;5.60;1.88;;;15.60;99.90;;;;;;4983225;28;20046;-63
2023/07/03 06:37:05;;;;;;;8.77;1.90;;;15.40;99.90;;;;;;4975142;28;20411;-63
2023/07/03 06:39:36;;;;;;;7.18;1.92;;;15.30;99.90;;;;;;5014303;28;20082;-63
2023/07/03 06:42:03;;;;;;;6.28;1.63;;;15.10;99.90;;;;;;4997094;28;20125;-63
2023/07/03 06:44:29;;;;;;;9.32;2.55;;;15.00;99.90;;;;;;5013808;28;20549;-63
2023/07/03 06:46:55;;;;;;;9.70;3.10;;;15.00;99.90;;;;;;4993249;28;20046;-63
2023/07/03 06:49:22;;;;;;;8.73;2.78;;;15.00;99.90;;;;;;4994129;28;20046;-63
2023/07/03 06:51:48;;;;;;;9.00;2.00;;;15.00;99.90;;;;;;5011119;28;20052;-63
2023/07/03 06:54:14;;;;;;;9.50;2.30;;;14.90;99.90;;;;;;4994114;28;20046;-64
2023/07/03 06:56:40;;;;;;;9.15;2.50;;;14.90;99.90;;;;;;5011399;28;20104;-62
2023/07/03 06:59:05;;;;;;;9.82;3.00;;;15.10;99.90;;;;;;4993247;28;20046;-62
2023/07/03 07:01:31;;;;;;;13.40;2.35;;;15.30;99.90;;;;;;5011593;28;20038;-61
2023/07/03 07:03:57;;;;;;;8.15;2.40;;;15.50;99.90;;;;;;4992307;28;20141;-62
2023/07/03 07:06:29;;;;;;;7.28;2.45;;;15.80;99.90;;;;;;4993080;28;20038;-62
2023/07/03 07:08:56;;;;;;;11.73;2.55;;;16.10;99.90;;;;;;4993243;28;20069;-63
2023/07/03 07:11:24;;;;;;;7.70;2.40;;;16.30;99.90;;;;;;4982324;28;20128;-63
2023/07/03 07:13:51;;;;;;;9.60;2.40;;;16.50;99.90;;;;;;4991548;28;20484;-63
2023/07/03 07:16:33;;;;;;;9.10;2.60;;;16.60;99.90;;;;;;4967877;28;20073;-63
2023/07/03 07:19:02;;;;;;;6.68;2.08;;;16.80;99.90;;;;;;5007238;28;21192;-63
2023/07/03 07:21:30;;;;;;;6.20;1.55;;;16.90;99.90;;;;;;4957175;28;20049;-63
2023/07/03 07:23:58;;;;;;;7.60;1.90;;;17.00;99.90;;;;;;4992699;28;20139;-62
2023/07/03 07:26:28;;;;;;;9.32;2.00;;;17.00;99.90;;;;;;4991092;28;20459;-61
2023/07/03 07:28:54;;;;;;;7.20;2.90;;;17.00;99.90;;;;;;4991867;28;20038;-61
2023/07/03 07:31:21;;;;;;;11.50;2.10;;;17.10;99.90;;;;;;4986923;28;20050;-63
2023/07/03 07:33:48;;;;;;;6.47;2.47;;;17.10;99.90;;;;;;4991649;28;20579;-62
2023/07/03 07:36:15;;;;;;;10.05;2.05;;;17.20;99.90;;;;;;5010278;28;20422;-62
2023/07/03 07:38:41;;;;;;;5.80;1.50;;;17.30;99.90;;;;;;4992828;28;20049;-61
2023/07/03 07:41:07;;;;;;;8.48;2.08;;;17.30;99.90;;;;;;4992704;28;20505;-62
2023/07/03 07:43:33;;;;;;;7.40;1.60;;;17.30;99.90;;;;;;4975224;28;20129;-62
2023/07/03 07:46:00;;;;;;;6.80;1.83;;;17.30;99.90;;;;;;4991778;28;20052;-62
2023/07/03 07:48:26;;;;;;;3.83;1.20;;;17.40;99.90;;;;;;4993148;28;20046;-62
2023/07/03 07:50:52;;;;;;;7.72;2.20;;;17.40;99.90;;;;;;4992617;28;20041;-61
2023/07/03 07:53:18;;;;;;;4.82;1.48;;;17.40;99.90;;;;;;4992821;28;20775;-61
2023/07/03 07:55:44;;;;;;;6.60;1.48;;;17.40;99.90;;;;;;4976612;28;20092;-62
2023/07/03 07:58:10;;;;;;;6.25;1.55;;;17.30;99.90;;;;;;5011085;28;20443;-62
2023/07/03 08:00:36;;;;;;;9.43;2.40;;;17.30;99.90;;;;;;4988004;28;20081;-61
2023/07/03 08:03:01;;;;;;;7.88;1.98;;;17.20;99.90;;;;;;5009922;28;20077;-62
2023/07/03 08:05:27;;;;;;;9.35;2.08;;;17.30;99.90;;;;;;4990674;28;20092;-61
2023/07/03 08:07:53;;;;;;;8.52;1.88;;;17.40;99.90;;;;;;5008967;28;20038;-61
2023/07/03 08:10:19;;;;;;;6.78;1.35;;;17.40;99.90;;;;;;5005573;28;20068;-61
2023/07/03 08:12:45;;;;;;;7.95;1.92;;;17.40;99.90;;;;;;4973314;28;20044;-61
2023/07/03 08:15:11;;;;;;;7.75;1.70;;;17.40;99.90;;;;;;4990558;28;20065;-62
2023/07/03 08:17:37;;;;;;;7.45;1.73;;;17.50;99.90;;;;;;4999661;28;20038;-62
2023/07/03 08:20:11;;;;;;;5.38;1.60;;;17.60;99.90;;;;;;4993040;28;20497;-61
2023/07/03 08:22:39;;;;;;;6.72;1.73;;;17.80;99.90;;;;;;4991506;28;20140;-61
2023/07/03 08:25:06;;;;;;;7.63;2.00;;;17.70;99.90;;;;;;4976676;28;20034;-62
2023/07/03 08:27:32;;;;;;;5.50;1.83;;;17.70;99.90;;;;;;5009074;28;20073;-62
2023/07/03 08:29:58;;;;;;;7.85;1.80;;;17.50;99.90;;;;;;4975980;28;20080;-61
2023/07/03 08:32:24;;;;;;;6.25;1.80;;;17.40;99.90;;;;;;4993675;28;20042;-61
2023/07/03 08:34:50;;;;;;;6.47;1.80;;;17.40;99.90;;;;;;4995392;28;20486;-61
2023/07/03 08:37:16;;;;;;;8.43;1.90;;;17.50;99.90;;;;;;4994572;28;20472;-61
2023/07/03 08:39:42;;;;;;;5.28;1.48;;;17.60;99.90;;;;;;4977556;28;20077;-62
2023/07/03 08:42:24;;;;;;;7.85;1.80;;;17.70;99.90;;;;;;5012866;28;20092;-62
2023/07/03 08:44:50;;;;;;;10.23;2.05;;;17.80;99.90;;;;;;4977576;28;20064;-62
2023/07/03 08:47:21;;;;;;;9.73;3.05;;;17.70;99.90;;;;;;4994723;28;20049;-62
2023/07/03 08:49:49;;;;;;;6.68;1.75;;;17.70;99.90;;;;;;4993992;28;20113;-61
2023/07/03 08:52:25;;;;;;;8.32;1.75;;;17.50;99.90;;;;;;4977979;28;20048;-61
2023/07/03 08:54:52;;;;;;;4.82;1.85;;;17.40;99.90;;;;;;4992005;28;20054;-61
2023/07/03 08:57:20;;;;;;;6.13;1.67;;;17.40;99.90;;;;;;4990520;28;20046;-61
2023/07/03 08:59:46;;;;;;;7.55;2.08;;;17.50;99.90;;;;;;5009564;28;20057;-62
2023/07/03 09:02:38;;;;;;;7.75;1.95;;;17.60;99.90;;;;;;4990081;28;20124;-65
2023/07/03 09:05:15;;;;;;;6.20;1.63;;;17.90;99.90;;;;;;4972110;28;20054;-64
2023/07/03 09:07:52;;;;;;;5.85;1.75;;;18.00;99.90;;;;;;4996690;28;20049;-63
2023/07/03 09:10:21;;;;;;;9.43;1.60;;;18.00;99.90;;;;;;4975477;28;20053;-63
2023/07/03 09:13:15;;;;;;;6.70;1.88;;;17.80;99.90;;;;;;4990976;28;20514;-64
2023/07/03 09:15:53;;;;;;;12.00;1.98;;;17.90;99.90;;;;;;5008961;28;20140;-65
2023/07/03 09:18:22;;;;;;;8.32;2.13;;;17.90;99.90;;;;;;4983439;28;20050;-64
2023/07/03 09:20:48;;;;;;;4.38;1.58;;;17.80;99.90;;;;;;5008818;28;20048;-64
2023/07/03 09:23:25;;;;;;;5.57;1.80;;;17.70;99.90;;;;;;5002612;28;20038;-64
2023/07/03 09:26:29;;;;;;;8.35;1.63;;;17.60;99.90;;;;;;4980262;28;20100;-64
2023/07/03 09:28:58;;;;;;;5.50;1.83;;;17.70;99.90;;;;;;4936663;28;20140;-63
2023/07/03 09:31:26;;;;;;;6.07;1.70;;;18.00;99.90;;;;;;4990434;28;20045;-63
2023/07/03 09:33:52;;;;;;;5.82;2.00;;;18.10;99.90;;;;;;4987276;28;20042;-65
2023/07/03 09:36:36;;;;;;;6.15;1.80;;;18.10;99.90;;;;;;4970604;28;20049;-65
2023/07/03 09:39:18;;;;;;;5.93;1.80;;;18.00;99.90;;;;;;4999171;28;20046;-65
2023/07/03 09:41:44;;;;;;;6.53;1.27;;;17.90;99.90;;;;;;4986248;28;20554;-63
2023/07/03 09:44:15;;;;;;;4.70;1.35;;;17.90;99.90;;;;;;5006141;28;20175;-64
2023/07/03 09:46:43;;;;;;;6.07;1.95;;;17.90;99.90;;;;;;4985013;28;20053;-64
2023/07/03 09:49:16;;;;;;;6.38;1.60;;;17.90;99.90;;;;;;5012466;28;20034;-64
2023/07/03 09:51:41;;;;;;;9.27;1.63;;;17.80;99.90;;;;;;4993713;28;20555;-64
2023/07/03 09:54:21;;;;;;;8.40;1.92;;;17.90;99.90;;;;;;4988407;28;20066;-64
2023/07/03 09:56:49;;;;;;;4.18;1.42;;;18.00;99.90;;;;;;4995243;28;20044;-64
2023/07/03 09:59:22;;;;;;;7.30;2.08;;;18.10;99.90;;;;;;4994545;28;20045;-65
2023/07/03 10:01:55;;;;;;;7.50;2.00;;;18.20;99.90;;;;;;4995249;28;20045;-65
2023/07/03 10:04:21;;;;;;;7.15;1.88;;;18.20;99.90;;;;;;5007662;28;20056;-65
2023/07/03 10:06:58;;;;;;;6.05;1.60;;;18.20;99.90;;;;;;4974558;28;20042;-65
2023/07/03 10:09:29;;;;;;;7.00;1.70;;;18.20;99.90;;;;;;4996160;28;20096;-65
2023/07/03 10:11:58;;;;;;;7.22;1.77;;;18.00;99.90;;;;;;4997631;28;20076;-65
2023/07/03 10:14:36;;;;;;;6.65;1.90;;;17.80;99.90;;;;;;4997706;28;20487;-64
2023/07/03 10:17:12;;;;;;;6.30;1.92;;;17.60;99.90;;;;;;4996804;28;20030;-65
2023/07/03 10:19:40;;;;;;;7.55;2.03;;;17.40;99.90;;;;;;4997263;28;20042;-65
2023/07/03 10:22:07;;;;;;;9.57;2.83;;;17.30;99.90;;;;;;4982636;28;20046;-64
2023/07/03 10:24:35;;;;;;;10.65;3.95;;;17.10;99.90;;;;;;5008729;28;20045;-65
2023/07/03 10:27:03;;;;;;;11.05;2.80;;;16.80;99.90;;;;;;5013448;28;20460;-64
2023/07/03 10:29:37;;;;;;;8.82;2.13;;;16.60;99.90;;;;;;4976224;28;20046;-63
2023/07/03 10:32:16;;;;;;;6.18;2.20;;;16.60;99.90;;;;;;5006090;28;20056;-63
2023/07/03 10:35:06;;;;;;;7.63;2.20;;;16.70;99.90;;;;;;4980348;28;20038;-63
2023/07/03 10:37:43;;;;;;;9.10;2.65;;;16.70;99.90;;;;;;4987409;28;20069;-63
2023/07/03 10:40:38;;;;;;;6.00;2.00;;;16.60;99.90;;;;;;4997057;28;20046;-62
2023/07/03 10:43:06;;;;;;;6.70;1.90;;;16.70;99.90;;;;;;4968442;28;20053;-63
2023/07/03 10:45:36;;;;;;;11.30;2.40;;;16.70;99.90;;;;;;5013204;28;20038;-64
2023/07/03 10:48:26;;;;;;;6.78;2.33;;;16.60;99.90;;;;;;4995412;28;20439;-62
2023/07/03 10:51:10;;;;;;;6.35;1.77;;;16.60;99.90;;;;;;4986692;28;20052;-62
2023/07/03 10:53:52;;;;;;;8.50;2.08;;;16.60;99.90;;;;;;4983680;28;20044;-62
2023/07/03 10:56:44;;;;;;;7.25;2.13;;;16.60;99.90;;;;;;4996722;28;20068;-62
2023/07/03 10:59:21;;;;;;;7.10;1.70;;;16.60;99.90;;;;;;4993279;28;20420;-62
2023/07/03 11:02:06;;;;;;;8.85;2.38;;;16.70;99.90;;;;;;4989662;28;20046;-62
2023/07/03 11:05:03;;;;;;;5.00;1.75;;;16.80;99.90;;;;;;5005489;28;20045;-62
2023/07/03 11:07:34;;;;;;;6.78;1.63;;;16.90;99.90;;;;;;4996052;28;20042;-61
2023/07/03 11:10:06;;;;;;;4.88;1.65;;;17.10;99.90;;;;;;4996674;28;20133;-62
2023/07/03 11:12:51;;;;;;;6.18;1.70;;;17.20;99.90;;;;;;5013822;28;20042;-61
2023/07/03 11:15:29;;;;;;;5.03;1.63;;;17.30;99.90;;;;;;5013943;28;20046;-62
2023/07/03 11:18:21;;;;;;;4.35;1.60;;;17.40;99.90;;;;;;4995498;28;20048;-61
2023/07/03 11:21:12;;;;;;;6.20;1.40;;;17.60;99.90;;;;;;5014018;28;20048;-61
2023/07/03 11:23:55;;;;;;;4.30;1.25;;;17.60;99.90;;;;;;5014197;28;20538;-62
2023/07/03 11:26:58;;;;;;;5.28;1.30;;;17.60;99.90;;;;;;4979250;28;20050;-62
2023/07/03 11:29:24;;;;;;;6.55;1.58;;;17.70;99.90;;;;;;4972652;28;20054;-62
2023/07/03 11:31:51;;;;;;;7.47;1.98;;;17.90;99.90;;;;;;5012855;28;20116;-61
2023/07/03 11:34:19;;;;;;;5.18;2.13;;;17.90;99.90;;;;;;4996128;28;20048;-62
2023/07/03 11:36:49;;;;;;;9.80;2.15;;;17.70;99.90;;;;;;5013604;28;20415;-62
2023/07/03 11:39:19;;;;;;;6.05;1.38;;;17.60;99.90;;;;;;4995678;28;20500;-62
2023/07/03 11:41:53;;;;;;;5.63;2.22;;;17.50;99.90;;;;;;5013669;28;20049;-61
2023/07/03 11:44:43;;;;;;;5.13;1.50;;;17.40;99.90;;;;;;5013540;28;20046;-61
2023/07/03 11:47:11;;;;;;;6.47;1.75;;;17.40;99.90;;;;;;5003009;28;20058;-62
2023/07/03 11:49:43;;;;;;;6.60;1.80;;;17.30;99.90;;;;;;4979607;28;20117;-62
2023/07/03 11:52:13;;;;;;;4.13;1.30;;;17.30;99.90;;;;;;4996420;28;20034;-62
2023/07/03 11:54:39;;;;;;;5.38;1.67;;;17.30;99.90;;;;;;5012836;28;20042;-62
2023/07/03 11:57:27;;;;;;;6.22;1.80;;;17.40;99.90;;;;;;4996043;28;20042;-61
2023/07/03 12:00:00;;;;;;;5.35;1.60;;;17.60;99.90;;;;;;5013299;28;20081;-62
2023/07/03 12:02:26;;;;;;;7.88;1.95;;;17.80;99.90;;;;;;5013022;28;20048;-61
2023/07/03 12:04:52;;;;;;;8.43;1.63;;;17.90;99.90;;;;;;4995811;28;20041;-62
2023/07/03 12:07:18;;;;;;;7.75;1.83;;;17.90;99.80;;;;;;4994658;28;20582;-62
2023/07/03 12:09:45;;;;;;;4.97;1.77;;;17.90;99.90;;;;;;4995421;28;20521;-62
2023/07/03 12:12:12;;;;;;;6.22;1.48;;;17.90;99.90;;;;;;4995750;28;20045;-61
2023/07/03 12:15:01;;;;;;;6.07;1.77;;;17.80;99.90;;;;;;4994765;28;20133;-62
2023/07/03 12:17:33;;;;;;;6.38;1.60;;;17.70;99.90;;;;;;4995402;28;20045;-61
2023/07/03 12:20:11;;;;;;;5.55;1.42;;;17.80;99.90;;;;;;4995493;28;20104;-61
2023/07/03 12:22:42;;;;;;;7.78;1.80;;;17.80;99.90;;;;;;5012333;28;20442;-61
2023/07/03 12:25:12;;;;;;;7.53;1.85;;;17.70;99.90;;;;;;5013169;28;20117;-62
2023/07/03 12:27:39;;;;;;;5.90;1.58;;;17.90;99.90;;;;;;5013152;28;20041;-61
2023/07/03 12:30:09;;;;;;;5.30;1.40;;;18.10;99.90;;;;;;4994601;28;20439;-61
2023/07/03 12:32:36;;;;;;;5.68;1.52;;;18.50;99.90;;;;;;4995065;28;20549;-62
2023/07/03 12:35:14;;;;;;;4.05;1.17;;;18.80;99.90;;;;;;4978847;28;20042;-62
2023/07/03 12:38:02;;;;;;;9.05;1.75;;;19.10;99.90;;;;;;5012746;28;20038;-62
2023/07/03 12:40:27;;;;;;;5.20;1.60;;;19.20;99.20;;;;;;4998664;28;20050;-61
2023/07/03 12:42:58;;;;;;;3.78;1.13;;;19.30;97.70;;;;;;4994366;28;20133;-62
2023/07/03 12:45:27;;;;;;;4.55;1.50;;;19.10;97.10;;;;;;5012323;28;20546;-62
2023/07/03 12:48:10;;;;;;;5.13;1.50;;;19.10;97.40;;;;;;5012566;28;20034;-62
2023/07/03 12:50:47;;;;;;;5.93;1.83;;;19.10;96.40;;;;;;5011797;28;20045;-62
2023/07/03 12:53:12;;;;;;;7.82;1.65;;;19.10;94.00;;;;;;5012571;28;20038;-62
2023/07/03 12:55:41;;;;;;;6.75;1.67;;;18.90;95.30;;;;;;4995055;28;20041;-62